Time;durP1;ratioP1;P1;durP2;ratioP2;P2;SDS_P1;SDS_P2;PMS_P1;PMS_P2;Temp;Humidity;BMP_temperature;BMP_pressure;BME280_temperature;BME280_humidity;BME280_pressure;Samples;Min_cycle;Max_cycle;Signal;HPM_P1;HPM_P2
2023/10/19 00:05:56;;;;;;;10.68;6.95;;;;;;;7.06;100.00;100192.31;6089764;23;20009;-81
2023/10/19 00:08:23;;;;;;;11.63;7.47;;;;;;;7.04;100.00;100189.09;6042541;23;20046;-82
2023/10/19 00:11:02;;;;;;;10.15;6.97;;;;;;;7.04;100.00;100179.25;6107594;23;20022;-81
2023/10/19 00:13:54;;;;;;;10.53;6.67;;;;;;;7.07;100.00;100178.75;6069651;23;20019;31
2023/10/19 00:21:51;;;;;;;10.65;6.40;;;;;;;7.03;100.00;100174.19;6117702;23;20038;-80
2023/10/19 00:24:19;;;;;;;12.00;6.13;;;;;;;7.02;100.00;100160.06;6102122;23;20018;-79
2023/10/19 00:29:55;;;;;;;12.02;6.93;;;;;;;7.04;100.00;100152.63;6056825;23;20027;-74
2023/10/19 00:32:24;;;;;;;12.77;8.00;;;;;;;7.07;100.00;100167.28;6052932;23;20015;-73
2023/10/19 00:34:51;;;;;;;9.40;6.75;;;;;;;7.06;100.00;100161.16;6059495;23;20014;-75
2023/10/19 00:37:26;;;;;;;11.65;8.38;;;;;;;7.06;100.00;100149.72;6052930;23;20019;-75
2023/10/19 00:39:55;;;;;;;11.50;8.00;;;;;;;7.06;100.00;100149.72;6028275;23;20018;-74
2023/10/19 00:42:25;;;;;;;12.55;8.10;;;;;;;7.07;100.00;100140.66;6027470;23;20494;-75
2023/10/19 00:44:51;;;;;;;12.40;8.15;;;;;;;7.06;100.00;100139.06;6026747;23;20098;-73
2023/10/19 00:47:23;;;;;;;12.70;9.07;;;;;;;7.07;100.00;100141.47;6023419;23;20098;-73
2023/10/19 00:49:49;;;;;;;11.77;7.47;;;;;;;7.08;100.00;100131.63;6052817;23;20082;-74
2023/10/19 00:52:24;;;;;;;11.45;7.50;;;;;;;7.07;100.00;100135.34;6028077;23;20060;-74
2023/10/19 00:54:52;;;;;;;10.48;6.97;;;;;;;7.07;100.00;100143.34;6029015;23;20019;-73
2023/10/19 00:57:32;;;;;;;10.73;7.32;;;;;;;7.07;100.00;100140.66;6051820;23;20014;-74
2023/10/19 01:00:11;;;;;;;11.20;7.20;;;;;;;7.07;100.00;100132.69;6006705;23;20125;-75
2023/10/19 01:02:46;;;;;;;12.00;7.68;;;;;;;7.05;100.00;100132.94;6053468;23;20053;-74
2023/10/19 01:05:14;;;;;;;12.35;7.95;;;;;;;7.07;100.00;100127.34;6054203;23;20089;-75
2023/10/19 01:07:40;;;;;;;14.02;7.18;;;;;;;7.06;100.00;100118.56;6005974;23;20023;-74
2023/10/19 01:10:08;;;;;;;11.98;7.85;;;;;;;7.05;100.00;100122.31;6053183;23;20105;-75
2023/10/19 01:12:38;;;;;;;12.02;7.28;;;;;;;7.06;100.00;100109.78;6055426;23;20015;-74
2023/10/19 01:17:58;;;;;;;10.85;6.78;;;;;;;7.06;100.00;100093.81;6054329;23;20014;-74
2023/10/19 01:28:17;;;;;;;10.52;6.72;;;;;;;7.06;100.00;100085.81;6075088;23;20017;-74
2023/10/19 01:30:51;;;;;;;11.38;8.50;;;;;;;7.04;100.00;100077.28;6039728;23;20030;-74
2023/10/19 01:33:21;;;;;;;9.90;7.03;;;;;;;7.05;100.00;100073.56;6086923;23;20193;-73
2023/10/19 01:38:32;;;;;;;11.75;7.93;;;;;;;7.03;100.00;100065.03;6062969;23;20017;-74
2023/10/19 01:41:05;;;;;;;10.95;7.00;;;;;;;7.02;100.00;100047.47;6088290;23;20029;-74
2023/10/19 01:43:32;;;;;;;11.32;7.25;;;;;;;7.01;100.00;100057.31;6089492;23;20021;-75
2023/10/19 01:46:04;;;;;;;10.75;7.18;;;;;;;7.02;100.00;100055.44;6066420;23;20018;-74
2023/10/19 01:48:33;;;;;;;11.98;7.95;;;;;;;7.04;100.00;100059.44;6090122;23;20013;-76
2023/10/19 01:51:03;;;;;;;12.65;7.15;;;;;;;7.03;100.00;100043.72;6065879;23;20066;-73
2023/10/19 01:53:29;;;;;;;10.85;7.03;;;;;;;7.02;100.00;100042.13;6089624;23;20083;-76
2023/10/19 01:55:58;;;;;;;9.90;6.63;;;;;;;6.99;100.00;100032.03;6043112;23;20032;-73
2023/10/19 01:58:25;;;;;;;14.30;8.13;;;;;;;6.99;100.00;100034.69;6067956;23;20444;-76
2023/10/19 02:01:00;;;;;;;10.32;6.68;;;;;;;7.00;100.00;100030.97;6067159;23;20018;-74
2023/10/19 02:03:28;;;;;;;11.98;7.53;;;;;;;7.00;100.00;100022.97;6044939;23;20029;-74
2023/10/19 02:06:05;;;;;;;10.02;7.05;;;;;;;7.01;100.00;100035.22;6091265;23;20436;-77
2023/10/19 02:08:31;;;;;;;10.85;7.18;;;;;;;7.01;100.00;100035.22;6066712;23;20018;-74
2023/10/19 02:11:02;;;;;;;;;;;;;;;6.99;100.00;100026.69;6067446;23;20013;-76
2023/10/19 02:13:28;;;;;;;15.02;7.50;;;;;;;6.98;100.00;100017.91;6091133;23;19912;-75
2023/10/19 02:15:53;;;;;;;12.48;7.38;;;;;;;6.99;100.00;100022.16;6089969;23;20024;-74
2023/10/19 02:18:19;;;;;;;10.27;6.55;;;;;;;7.00;100.00;100015.78;6066000;23;20022;-75
2023/10/19 02:20:48;;;;;;;12.63;7.65;;;;;;;6.98;100.00;100011.78;6042407;23;20018;-75
2023/10/19 02:23:14;;;;;;;9.85;6.90;;;;;;;7.01;100.00;100016.59;6042483;23;20018;-74
2023/10/19 02:25:40;;;;;;;12.95;7.05;;;;;;;7.00;100.00;100009.66;6089336;23;20018;-75
2023/10/19 02:28:09;;;;;;;13.85;7.60;;;;;;;6.99;100.00;100006.19;6114894;23;20368;-74
2023/10/19 02:30:35;;;;;;;13.32;7.63;;;;;;;7.00;100.00;100001.66;6065938;23;20296;-75
2023/10/19 02:33:01;;;;;;;10.77;7.40;;;;;;;7.01;100.00;99993.41;6043263;23;20500;-76
2023/10/19 02:35:28;;;;;;;11.50;8.05;;;;;;;7.00;100.00;100007.78;6064837;23;20018;-73
2023/10/19 02:37:54;;;;;;;12.40;7.82;;;;;;;6.99;100.00;100005.41;6067409;23;20018;-74
2023/10/19 02:40:20;;;;;;;12.00;7.35;;;;;;;6.99;100.00;100002.75;6066134;23;20022;-76
2023/10/19 02:42:47;;;;;;;12.35;8.85;;;;;;;7.02;100.00;100018.16;6090827;23;20133;-76
2023/10/19 02:45:15;;;;;;;11.00;7.60;;;;;;;6.99;100.00;100008.06;6089082;23;20047;-76
2023/10/19 02:47:43;;;;;;;12.25;8.32;;;;;;;6.99;100.00;100011.53;6115886;23;20036;-73
2023/10/19 02:50:13;;;;;;;11.43;8.23;;;;;;;6.99;100.00;100006.19;6065038;23;20018;-75
2023/10/19 02:52:40;;;;;;;11.60;7.68;;;;;;;6.99;100.00;100005.41;6041535;23;20341;-74
2023/10/19 02:55:07;;;;;;;12.88;7.45;;;;;;;6.97;100.00;100002.97;6065836;23;20018;-73
2023/10/19 02:57:33;;;;;;;11.65;8.55;;;;;;;7.01;100.00;100005.94;6041993;23;20024;-74
2023/10/19 02:59:59;;;;;;;12.10;7.03;;;;;;;7.02;100.00;99996.88;6090208;23;20022;-74
2023/10/19 03:02:26;;;;;;;11.45;7.75;;;;;;;7.00;100.00;99999.00;6064111;23;20314;-73
2023/10/19 03:04:54;;;;;;;11.30;7.38;;;;;;;6.98;100.00;99999.28;6041894;23;20109;-73
2023/10/19 03:07:20;;;;;;;11.65;7.72;;;;;;;7.01;100.00;99987.28;6065371;23;20014;-73
2023/10/19 03:09:54;;;;;;;12.10;7.43;;;;;;;7.01;100.00;99989.97;6087729;23;20769;-76
2023/10/19 03:12:26;;;;;;;12.30;7.03;;;;;;;7.00;100.00;99991.03;6041705;23;20097;-74
2023/10/19 03:14:52;;;;;;;12.82;7.55;;;;;;;6.99;100.00;99990.22;6042634;23;20460;-74
2023/10/19 03:17:18;;;;;;;13.57;8.38;;;;;;;6.97;100.00;99984.34;6089717;23;20076;-74
2023/10/19 03:19:44;;;;;;;13.27;8.38;;;;;;;6.95;100.00;99988.34;6089227;23;20329;-73
2023/10/19 03:22:11;;;;;;;16.15;9.23;;;;;;;6.92;100.00;99980.91;6089579;23;20021;-75
2023/10/19 03:24:43;;;;;;;12.70;8.15;;;;;;;6.85;100.00;99978.50;6065632;23;20711;-75
2023/10/19 03:27:21;;;;;;;14.27;8.57;;;;;;;6.83;100.00;99978.72;6114129;23;20372;-76
2023/10/19 03:29:54;;;;;;;13.30;9.07;;;;;;;6.76;100.00;99970.19;6089005;23;20018;-76
2023/10/19 03:32:26;;;;;;;13.38;8.23;;;;;;;6.74;100.00;99971.53;6089727;23;20465;-76
2023/10/19 03:34:55;;;;;;;11.63;7.65;;;;;;;6.71;100.00;99970.22;6065168;23;20017;-76
2023/10/19 03:37:22;;;;;;;14.43;8.85;;;;;;;6.67;100.00;99961.16;6088484;23;20044;-77
2023/10/19 03:39:49;;;;;;;15.07;9.32;;;;;;;6.65;100.00;99965.94;6065762;23;20022;-77
2023/10/19 03:42:14;;;;;;;12.13;8.90;;;;;;;6.64;100.00;99966.19;6088306;23;20006;-76
2023/10/19 03:44:50;;;;;;;15.23;9.32;;;;;;;6.60;100.00;99955.28;6088533;23;20010;-77
2023/10/19 03:47:35;;;;;;;13.75;8.57;;;;;;;6.58;100.00;99965.38;6066137;23;20223;-76
2023/10/19 03:50:06;;;;;;;16.50;8.75;;;;;;;6.58;100.00;99957.41;6116676;23;20037;-77
2023/10/19 03:52:37;;;;;;;13.07;9.13;;;;;;;6.54;100.00;99953.66;6090131;23;20456;-76
2023/10/19 03:55:10;;;;;;;13.45;8.80;;;;;;;6.51;100.00;99946.22;6065417;23;20017;-75
2023/10/19 03:57:41;;;;;;;14.45;9.00;;;;;;;6.49;100.00;99940.34;6090069;23;20017;-76
2023/10/19 04:00:11;;;;;;;17.23;10.15;;;;;;;6.47;100.00;99945.13;6091702;23;20020;-76
2023/10/19 04:02:38;;;;;;;15.35;9.93;;;;;;;6.44;100.00;99935.81;6091918;23;20080;-76
2023/10/19 04:05:04;;;;;;;13.68;8.85;;;;;;;6.43;100.00;99938.72;6067485;23;20049;-76
2023/10/19 04:07:33;;;;;;;18.98;9.23;;;;;;;6.41;100.00;99941.66;6116030;23;20024;-75
2023/10/19 04:12:38;;;;;;;13.70;8.85;;;;;;;6.35;100.00;99932.03;6068158;23;20018;-76
2023/10/19 04:17:42;;;;;;;14.95;9.20;;;;;;;6.29;100.00;99915.28;6067775;23;20029;-78
2023/10/19 04:22:48;;;;;;;15.38;9.60;;;;;;;6.28;100.00;99919.00;6091279;23;20022;-76
2023/10/19 04:25:16;;;;;;;15.27;8.93;;;;;;;6.27;100.00;99924.59;6066284;23;20088;-77
2023/10/19 04:27:45;;;;;;;15.30;9.65;;;;;;;6.25;100.00;99922.19;6092002;23;20010;-76
2023/10/19 04:30:15;;;;;;;15.65;10.45;;;;;;;6.23;100.00;99924.31;6092177;23;20013;-75
2023/10/19 04:32:51;;;;;;;14.52;10.25;;;;;;;6.21;100.00;99929.06;6067413;23;20459;-76
2023/10/19 04:35:23;;;;;;;14.77;8.90;;;;;;;6.17;100.00;99921.91;6066111;23;20049;-76
2023/10/19 04:37:52;;;;;;;15.60;8.80;;;;;;;6.16;100.00;99917.63;6091676;23;20018;-75
2023/10/19 04:40:19;;;;;;;16.80;10.88;;;;;;;6.15;100.00;99913.38;6091552;23;20349;-76
2023/10/19 04:42:45;;;;;;;14.10;8.98;;;;;;;6.12;100.00;99912.03;6066895;23;20021;-76
2023/10/19 04:45:12;;;;;;;14.73;9.93;;;;;;;6.10;100.00;99913.38;6090994;23;20014;-75
2023/10/19 04:47:38;;;;;;;16.08;9.40;;;;;;;6.08;100.00;99916.25;6092160;23;20025;-77
2023/10/19 04:50:10;;;;;;;16.75;10.50;;;;;;;6.09;100.00;99912.53;6092614;23;20010;-76
2023/10/19 04:52:36;;;;;;;15.95;10.15;;;;;;;6.08;100.00;99912.81;6067021;23;20373;-75
2023/10/19 04:55:02;;;;;;;;;;;;;;;6.06;100.00;99918.38;6117432;23;20014;-75
2023/10/19 04:57:28;;;;;;;15.40;9.05;;;;;;;6.02;100.00;99922.59;6117601;23;19908;-75
2023/10/19 04:59:55;;;;;;;;;;;;;;;6.00;100.00;99912.25;6091920;23;20022;-75
2023/10/19 05:02:21;;;;;;;13.20;8.75;;;;;;;5.99;100.00;99913.31;6066935;23;19987;-75
2023/10/19 05:04:46;;;;;;;19.30;10.18;;;;;;;6.03;100.00;99908.28;6117104;23;20044;-74
2023/10/19 05:07:16;;;;;;;17.63;9.10;;;;;;;6.01;100.00;99894.44;6066582;23;20018;-77
2023/10/19 05:09:43;;;;;;;17.65;10.98;;;;;;;6.00;100.00;99892.84;6116357;23;20018;-75
2023/10/19 05:12:09;;;;;;;15.75;9.68;;;;;;;5.98;100.00;99889.66;6091152;23;20037;-75
2023/10/19 05:14:39;;;;;;;13.75;9.18;;;;;;;5.95;100.00;99880.31;6066456;23;20053;-76
2023/10/19 05:17:05;;;;;;;16.17;9.77;;;;;;;5.93;100.00;99886.97;6091688;23;20029;-75
2023/10/19 05:19:32;;;;;;;17.33;10.18;;;;;;;5.93;100.00;99881.66;6117859;23;20014;-72
2023/10/19 05:21:57;;;;;;;19.85;10.93;;;;;;;5.94;100.00;99872.63;6117213;23;20064;-77
2023/10/19 05:24:23;;;;;;;19.52;10.48;;;;;;;5.94;100.00;99870.75;6117766;23;20085;-76
2023/10/19 05:26:49;;;;;;;15.45;9.90;;;;;;;5.93;100.00;99876.34;6089968;23;20571;-76
2023/10/19 05:29:15;;;;;;;15.77;9.70;;;;;;;5.94;100.00;99872.63;6114971;23;20006;-75
2023/10/19 05:31:41;;;;;;;16.50;10.30;;;;;;;5.95;100.00;99869.69;6089130;23;20483;-75
2023/10/19 05:34:08;;;;;;;15.75;9.93;;;;;;;5.95;100.00;99867.03;6065771;23;20014;-78
2023/10/19 05:36:34;;;;;;;16.38;9.40;;;;;;;5.95;100.00;99863.56;6115668;23;20111;-76
2023/10/19 05:38:59;;;;;;;16.80;9.80;;;;;;;5.94;100.00;99862.00;6090150;23;20446;-77
2023/10/19 05:41:26;;;;;;;16.55;10.57;;;;;;;5.94;100.00;99867.31;6115667;23;20014;-77
2023/10/19 05:43:52;;;;;;;15.10;9.70;;;;;;;5.93;100.00;99866.50;6090826;23;20565;-77
2023/10/19 05:46:21;;;;;;;14.00;8.68;;;;;;;5.91;100.00;99873.16;6065935;23;20024;-77
2023/10/19 05:48:46;;;;;;;17.25;9.90;;;;;;;5.88;100.00;99858.47;6064423;23;20424;-75
2023/10/19 05:51:14;;;;;;;18.35;10.90;;;;;;;5.90;100.00;99850.25;6115189;23;20056;-75
2023/10/19 05:53:41;;;;;;;16.92;9.80;;;;;;;5.87;100.00;99850.75;6066404;23;20077;-78
2023/10/19 05:56:07;;;;;;;15.30;9.73;;;;;;;5.89;100.00;99852.13;6065362;23;20060;-77
2023/10/19 05:58:32;;;;;;;17.92;10.13;;;;;;;5.92;100.00;99837.53;6114032;23;20018;-76
2023/10/19 06:00:59;;;;;;;18.02;10.00;;;;;;;5.92;100.00;99848.97;6115790;23;20021;-76
2023/10/19 06:03:25;;;;;;;14.65;9.60;;;;;;;5.93;100.00;99849.75;6042494;23;20014;-77
2023/10/19 06:05:50;;;;;;;18.42;10.00;;;;;;;5.89;100.00;99859.28;6088411;23;20337;-76
2023/10/19 06:08:16;;;;;;;16.40;9.00;;;;;;;5.92;100.00;99864.13;6116018;23;20808;-75
2023/10/19 06:10:42;;;;;;;17.33;10.55;;;;;;;5.94;100.00;99862.00;6064467;23;20014;-77
2023/10/19 06:13:09;;;;;;;;;;;;;;;5.94;100.00;99856.66;6067750;23;20021;-76
2023/10/19 06:15:35;;;;;;;17.23;9.50;;;;;;;5.90;100.00;99851.06;6089498;23;19917;-77
2023/10/19 06:18:01;;;;;;;17.50;10.00;;;;;;;5.92;100.00;99848.16;6089503;23;20427;-78
2023/10/19 06:20:26;;;;;;;17.60;10.52;;;;;;;5.93;100.00;99852.41;6064847;23;20540;-76
2023/10/19 06:22:55;;;;;;;16.52;9.15;;;;;;;5.91;100.00;99850.03;6065963;23;20808;-77
2023/10/19 06:25:24;;;;;;;15.55;9.90;;;;;;;5.91;100.00;99859.88;6115498;23;20010;-76
2023/10/19 06:27:51;;;;;;;17.23;9.60;;;;;;;5.95;100.00;99858.25;6113432;23;20013;-75
2023/10/19 06:30:18;;;;;;;17.98;10.32;;;;;;;5.95;100.00;99860.91;6065318;23;20083;-76
2023/10/19 06:32:47;;;;;;;16.02;9.55;;;;;;;5.94;100.00;99864.66;6065646;23;20025;-75
2023/10/19 06:35:13;;;;;;;14.93;10.00;;;;;;;5.93;100.00;99861.19;6088690;23;20092;-74
2023/10/19 06:37:40;;;;;;;16.65;9.43;;;;;;;5.96;100.00;99851.88;6088771;23;20452;-76
2023/10/19 06:40:06;;;;;;;17.33;10.57;;;;;;;5.95;100.00;99868.91;6086043;23;20025;-77
2023/10/19 06:42:32;;;;;;;15.07;9.68;;;;;;;5.93;100.00;99871.81;6058932;23;20018;-78
2023/10/19 06:44:58;;;;;;;20.15;10.00;;;;;;;5.96;100.00;99859.84;6037606;23;20014;-79
2023/10/19 06:47:24;;;;;;;15.48;9.65;;;;;;;5.96;100.00;99866.00;6037934;23;20081;-79
2023/10/19 06:49:50;;;;;;;14.82;9.77;;;;;;;6.01;100.00;99868.66;6061908;23;20021;-79
2023/10/19 06:52:17;;;;;;;17.38;9.98;;;;;;;6.02;100.00;99869.44;6015258;23;20101;-79
2023/10/19 06:54:43;;;;;;;16.80;9.25;;;;;;;6.02;100.00;99870.25;6038007;23;20397;-78
2023/10/19 06:57:10;;;;;;;18.75;11.05;;;;;;;6.02;100.00;99870.25;6037795;23;20030;-78
2023/10/19 06:59:36;;;;;;;17.63;10.25;;;;;;;6.03;100.00;99865.75;6015014;23;20073;-77
2023/10/19 07:02:02;;;;;;;14.43;8.90;;;;;;;6.05;100.00;99870.81;6037826;23;20025;-74
2023/10/19 07:04:29;;;;;;;17.13;10.75;;;;;;;6.03;100.00;99865.75;6038190;23;20018;-79
2023/10/19 07:06:56;;;;;;;16.17;10.25;;;;;;;6.08;100.00;99871.06;6060927;23;20014;-78
2023/10/19 07:09:23;;;;;;;16.98;10.00;;;;;;;6.10;100.00;99874.28;6062326;23;20018;-80
2023/10/19 07:11:54;;;;;;;15.88;9.63;;;;;;;6.08;100.00;99863.09;6037146;23;20024;-78
2023/10/19 07:14:40;;;;;;;16.42;9.90;;;;;;;6.05;100.00;99853.00;6062121;23;20014;-79
2023/10/19 07:17:07;;;;;;;15.45;9.40;;;;;;;6.07;100.00;99866.03;6059339;23;20432;-76
2023/10/19 07:19:33;;;;;;;18.02;9.68;;;;;;;6.06;100.00;99849.28;6039778;23;20018;-77
2023/10/19 07:21:58;;;;;;;16.55;10.20;;;;;;;6.03;100.00;99839.19;6063437;23;20215;-79
2023/10/19 07:24:25;;;;;;;16.48;9.15;;;;;;;6.03;100.00;99839.19;6065465;23;20211;-77
2023/10/19 07:27:02;;;;;;;14.73;9.45;;;;;;;6.03;100.00;99839.19;6064325;23;20453;-74
2023/10/19 07:29:28;;;;;;;17.48;9.77;;;;;;;6.06;100.00;99843.97;6042602;23;20018;-77
2023/10/19 07:31:55;;;;;;;16.60;10.52;;;;;;;6.04;100.00;99851.41;6064572;23;20445;-78
2023/10/19 07:34:25;;;;;;;17.73;9.20;;;;;;;6.09;100.00;99869.22;6018311;23;20389;-79
2023/10/19 07:36:53;;;;;;;18.42;11.23;;;;;;;6.08;100.00;99867.63;6041636;23;20025;-79
2023/10/19 07:39:20;;;;;;;17.42;9.95;;;;;;;6.05;100.00;99879.59;5997180;23;20025;-78
2023/10/19 07:41:46;;;;;;;15.90;10.43;;;;;;;6.05;100.00;99873.47;6058952;23;20024;-77
2023/10/19 07:44:12;;;;;;;17.60;10.02;;;;;;;6.09;100.00;99880.63;6065711;23;20010;-80
2023/10/19 07:46:38;;;;;;;17.15;9.82;;;;;;;6.10;100.00;99876.94;6091326;23;20014;-76
2023/10/19 07:49:03;;;;;;;15.00;9.20;;;;;;;6.07;100.00;99872.13;6090244;23;20014;-77
2023/10/19 07:51:30;;;;;;;18.58;10.05;;;;;;;6.10;100.00;99870.84;6088928;23;20097;-78
2023/10/19 07:53:56;;;;;;;19.88;10.90;;;;;;;6.13;100.00;99865.78;6090100;23;20006;-78
2023/10/19 07:56:23;;;;;;;15.93;9.82;;;;;;;6.17;100.00;99861.56;6088299;23;20023;-77
2023/10/19 07:58:50;;;;;;;16.00;9.75;;;;;;;6.16;100.00;99851.94;6064495;23;20341;-78
2023/10/19 08:01:16;;;;;;;18.00;10.88;;;;;;;6.16;100.00;99843.97;6066055;23;20025;-77
2023/10/19 08:03:41;;;;;;;18.92;10.32;;;;;;;6.16;100.00;99843.19;6090372;23;20018;-78
2023/10/19 08:06:07;;;;;;;16.88;10.90;;;;;;;6.15;100.00;99836.28;6089061;23;20022;-77
2023/10/19 08:08:36;;;;;;;16.95;10.50;;;;;;;6.19;100.00;99842.66;6065454;23;20092;-75
2023/10/19 08:11:02;;;;;;;17.73;11.48;;;;;;;6.18;100.00;99830.44;6090037;23;20014;-78
2023/10/19 08:13:28;;;;;;;19.17;10.82;;;;;;;6.18;100.00;99835.75;6066139;23;20072;-78
2023/10/19 08:15:55;;;;;;;17.08;10.30;;;;;;;6.21;100.00;99827.25;6065040;23;20033;-75
2023/10/19 08:18:22;;;;;;;17.05;11.23;;;;;;;6.20;100.00;99826.44;6065232;23;20026;-79
2023/10/19 08:20:49;;;;;;;16.85;10.48;;;;;;;6.25;100.00;99815.84;6064016;23;20467;-78
2023/10/19 08:23:16;;;;;;;20.95;11.52;;;;;;;6.26;100.00;99822.75;6090071;23;20018;-80
2023/10/19 08:25:44;;;;;;;17.85;10.75;;;;;;;6.24;100.00;99816.91;6090485;23;20061;-80
2023/10/19 08:28:11;;;;;;;17.25;10.30;;;;;;;6.22;100.00;99800.38;6066608;23;20010;-78
2023/10/19 08:30:37;;;;;;;19.77;10.32;;;;;;;6.21;100.00;99804.13;6041522;23;20369;-79
2023/10/19 08:33:04;;;;;;;16.13;10.00;;;;;;;6.22;100.00;99800.38;6039649;23;20022;-78
2023/10/19 08:35:30;;;;;;;18.35;11.68;;;;;;;6.23;100.00;99801.19;6063894;23;20042;-80
2023/10/19 08:38:00;;;;;;;18.40;10.38;;;;;;;6.25;100.00;99818.50;6063797;23;20453;-75
2023/10/19 08:40:29;;;;;;;16.58;9.75;;;;;;;6.24;100.00;99808.91;6094148;23;20098;-76
2023/10/19 08:42:56;;;;;;;18.75;11.10;;;;;;;6.25;100.00;99821.16;6069001;23;20116;-78
2023/10/19 08:45:22;;;;;;;22.15;11.05;;;;;;;6.25;100.00;99817.69;6091165;23;20449;-76
2023/10/19 08:47:56;;;;;;;18.77;11.13;;;;;;;6.26;100.00;99824.59;6043380;23;20022;-76
2023/10/19 08:50:24;;;;;;;17.35;10.65;;;;;;;6.22;100.00;99821.66;6044576;23;20026;-77
2023/10/19 08:52:53;;;;;;;16.92;10.85;;;;;;;6.26;100.00;99816.63;6117723;23;20076;-76
2023/10/19 08:55:19;;;;;;;19.75;12.20;;;;;;;6.25;100.00;99813.16;6091547;23;20073;-79
2023/10/19 08:57:48;;;;;;;19.73;11.40;;;;;;;6.27;100.00;99813.69;6091797;23;20017;-73
2023/10/19 09:00:18;;;;;;;18.50;11.40;;;;;;;6.29;100.00;99819.53;6068045;23;20348;-78
2023/10/19 09:02:44;;;;;;;20.20;12.45;;;;;;;6.32;100.00;99820.09;6092358;23;20444;-79
2023/10/19 09:05:19;;;;;;;19.48;12.55;;;;;;;6.35;100.00;99822.22;6090557;23;20013;-77
2023/10/19 09:07:47;;;;;;;17.40;11.23;;;;;;;6.37;100.00;99828.06;6093017;23;20064;-75
2023/10/19 09:10:16;;;;;;;20.10;12.18;;;;;;;6.38;100.00;99835.00;6067109;23;20041;-78
2023/10/19 09:12:42;;;;;;;19.50;11.65;;;;;;;6.40;100.00;99838.19;6090786;23;20491;-76
2023/10/19 09:15:22;;;;;;;20.95;12.40;;;;;;;6.39;100.00;99832.06;6068346;23;20081;-78
2023/10/19 09:17:49;;;;;;;18.52;12.00;;;;;;;6.41;100.00;99839.78;6067016;23;20017;-77
2023/10/19 09:20:23;;;;;;;18.20;11.48;;;;;;;6.42;100.00;99820.91;6044183;23;20026;-78
2023/10/19 09:22:52;;;;;;;18.80;12.70;;;;;;;6.41;100.00;99821.97;6067550;23;20026;-79
2023/10/19 09:25:19;;;;;;;19.38;12.93;;;;;;;6.42;100.00;99822.75;6091125;23;20122;-78
2023/10/19 09:27:45;;;;;;;17.75;12.23;;;;;;;6.45;100.00;99830.22;6118043;23;20562;-78
2023/10/19 09:30:16;;;;;;;18.10;11.93;;;;;;;6.37;100.00;99820.09;6066555;23;20026;-78
2023/10/19 09:32:42;;;;;;;19.42;11.93;;;;;;;6.34;100.00;99831.25;6043817;23;20461;-75
2023/10/19 09:35:15;;;;;;;22.15;11.75;;;;;;;6.34;100.00;99829.41;6089771;23;20025;-78
2023/10/19 09:37:42;;;;;;;15.95;10.18;;;;;;;6.38;100.00;99832.34;6066974;23;20472;-79
2023/10/19 09:40:13;;;;;;;19.45;12.35;;;;;;;6.38;100.00;99832.34;6090177;23;20212;-79
2023/10/19 09:42:49;;;;;;;18.25;11.77;;;;;;;6.34;100.00;99823.28;6042611;23;20025;-79
2023/10/19 09:45:19;;;;;;;20.13;13.35;;;;;;;6.37;100.00;99830.72;6067171;23;20444;-75
2023/10/19 09:47:50;;;;;;;20.98;11.90;;;;;;;6.35;100.00;99816.91;6067145;23;20014;-79
2023/10/19 09:50:16;;;;;;;20.40;11.85;;;;;;;6.31;100.00;99813.19;6087150;23;20069;-75
2023/10/19 09:52:42;;;;;;;19.50;12.82;;;;;;;6.34;100.00;99825.94;6090140;23;20017;-78
2023/10/19 09:55:23;;;;;;;21.02;13.75;;;;;;;6.36;100.00;99826.47;6090269;23;20135;-80
2023/10/19 09:57:52;;;;;;;19.13;12.90;;;;;;;6.37;100.00;99836.03;6066617;23;20026;-79
2023/10/19 10:00:23;;;;;;;20.38;12.18;;;;;;;6.37;100.00;99844.84;6066057;23;20057;-79
2023/10/19 10:02:50;;;;;;;23.77;13.93;;;;;;;6.38;100.00;99848.31;6067363;23;20021;-77
2023/10/19 10:05:41;;;;;;;19.65;13.70;;;;;;;6.37;100.00;99852.00;6043178;23;20009;-78
2023/10/19 10:08:38;;;;;;;19.88;12.23;;;;;;;6.38;100.00;99835.81;6066392;23;20025;-77
2023/10/19 10:11:18;;;;;;;;;;;;;;;6.37;100.00;99836.03;6064866;23;20021;-78
2023/10/19 10:13:45;;;;;;;17.08;10.98;;;;;;;6.29;100.00;99843.47;6090465;23;19936;-78
2023/10/19 10:16:17;;;;;;;18.45;11.73;;;;;;;6.35;100.00;99840.84;6089435;23;20279;-77
2023/10/19 10:18:45;;;;;;;19.38;12.48;;;;;;;6.33;100.00;99837.66;6043753;23;20021;-78
2023/10/19 10:21:18;;;;;;;22.38;13.95;;;;;;;6.34;100.00;99834.72;6090301;23;20088;-80
2023/10/19 10:23:47;;;;;;;17.92;11.00;;;;;;;6.32;100.00;99830.75;6086902;23;20014;-76
2023/10/19 10:26:18;;;;;;;18.42;11.55;;;;;;;6.31;100.00;99847.75;6042266;23;20329;-77
2023/10/19 10:28:49;;;;;;;20.35;12.80;;;;;;;6.33;100.00;99851.75;6084003;23;20018;-76
2023/10/19 10:31:22;;;;;;;22.10;13.13;;;;;;;6.36;100.00;99842.44;6041821;23;20017;-75
2023/10/19 10:33:51;;;;;;;18.30;11.73;;;;;;;6.36;100.00;99839.78;6066555;23;20014;-74
2023/10/19 10:36:19;;;;;;;20.83;13.00;;;;;;;6.36;100.00;99816.63;6092126;23;20097;-74
2023/10/19 10:38:49;;;;;;;19.23;12.80;;;;;;;6.36;100.00;99816.63;6090242;23;20021;-79
2023/10/19 10:41:27;;;;;;;20.13;13.45;;;;;;;6.35;100.00;99825.69;6088323;23;20153;-77
2023/10/19 10:43:58;;;;;;;19.40;13.00;;;;;;;6.34;100.00;99808.13;6089238;23;20010;-73
2023/10/19 10:46:31;;;;;;;18.50;12.98;;;;;;;6.39;100.00;99799.38;6090170;23;20024;-81
2023/10/19 10:48:57;;;;;;;18.25;12.23;;;;;;;6.39;100.00;99804.69;6065687;23;20022;-79
2023/10/19 10:51:28;;;;;;;18.33;11.98;;;;;;;6.38;100.00;99809.22;6065980;23;20041;-77
2023/10/19 10:53:54;;;;;;;17.40;11.05;;;;;;;6.40;100.00;99809.72;6043059;23;20104;-77
2023/10/19 10:56:23;;;;;;;22.30;12.82;;;;;;;6.40;100.00;99812.38;6091036;23;20017;-75
2023/10/19 10:58:52;;;;;;;20.20;11.85;;;;;;;6.45;100.00;99803.63;6042817;23;20020;-75
2023/10/19 11:01:29;;;;;;;19.17;12.30;;;;;;;6.45;100.00;99798.31;6066242;23;20028;-78
2023/10/19 11:04:06;;;;;;;18.33;13.20;;;;;;;6.47;100.00;99790.84;6090294;23;20014;-75
2023/10/19 11:06:32;;;;;;;18.05;12.10;;;;;;;6.49;100.00;99802.03;6042249;23;20032;-78
2023/10/19 11:09:08;;;;;;;25.40;14.07;;;;;;;6.50;100.00;99798.28;6042089;23;20357;-76
2023/10/19 11:11:39;;;;;;;18.08;12.43;;;;;;;6.48;100.00;99803.09;6067273;23;20028;-79
2023/10/19 11:14:11;;;;;;;16.92;12.00;;;;;;;6.50;100.00;99816.91;6042634;23;20432;-79
2023/10/19 11:16:39;;;;;;;18.80;13.10;;;;;;;6.50;100.00;99812.41;6090054;23;20069;-80
2023/10/19 11:19:05;;;;;;;19.25;12.75;;;;;;;6.49;100.00;99807.34;6066723;23;20014;-78
2023/10/19 11:21:31;;;;;;;20.20;13.27;;;;;;;6.50;100.00;99828.38;6092634;23;20009;-78
2023/10/19 11:23:56;;;;;;;20.20;12.43;;;;;;;6.51;100.00;99823.84;6042169;23;20040;-77
2023/10/19 11:26:24;;;;;;;21.27;12.43;;;;;;;6.51;100.00;99829.19;6066465;23;20424;-76
2023/10/19 11:28:58;;;;;;;18.23;12.02;;;;;;;6.49;100.00;99826.75;6066853;23;20045;-77
2023/10/19 11:31:24;;;;;;;16.58;11.70;;;;;;;6.52;100.00;99822.78;6066557;23;20069;-78
2023/10/19 11:33:55;;;;;;;21.27;13.52;;;;;;;6.52;100.00;99825.44;6066728;23;20017;-75
2023/10/19 11:36:23;;;;;;;18.95;11.90;;;;;;;6.55;100.00;99808.94;6090694;23;20052;-78
2023/10/19 11:38:52;;;;;;;18.48;11.45;;;;;;;6.55;100.00;99816.91;6116936;23;20014;-78
2023/10/19 11:41:18;;;;;;;20.60;13.00;;;;;;;6.54;100.00;99815.31;6040751;23;20014;-74
2023/10/19 11:43:46;;;;;;;18.10;11.38;;;;;;;6.53;100.00;99800.44;6066227;23;20025;-77
2023/10/19 11:46:14;;;;;;;19.23;13.00;;;;;;;6.54;100.00;99794.03;6115233;23;20018;-80
2023/10/19 11:48:42;;;;;;;20.00;12.10;;;;;;;6.52;100.00;99796.19;6066452;23;20084;-77
2023/10/19 11:51:10;;;;;;;19.77;13.43;;;;;;;6.52;100.00;99788.22;6064458;23;20018;-76
2023/10/19 11:53:38;;;;;;;17.77;12.45;;;;;;;6.51;100.00;99781.28;6066414;23;20348;-77
2023/10/19 11:56:06;;;;;;;16.08;11.18;;;;;;;6.52;100.00;99774.91;6065872;23;20013;-76
2023/10/19 11:58:34;;;;;;;17.13;12.88;;;;;;;6.50;100.00;99771.69;6089804;23;20120;-76
2023/10/19 12:01:05;;;;;;;20.23;13.20;;;;;;;6.50;100.00;99763.72;6065951;23;20104;-79
2023/10/19 12:03:31;;;;;;;19.00;12.27;;;;;;;6.51;100.00;99754.69;6068420;23;20021;-77